Time;durP1;ratioP1;P1;durP2;ratioP2;P2;SDS_P1;SDS_P2;PMS_P1;PMS_P2;Temp;Humidity;BMP_temperature;BMP_pressure;BME280_temperature;BME280_humidity;BME280_pressure;Samples;Min_cycle;Max_cycle;Signal;HPM_P1;HPM_P2
2021/03/09 12:57:14;;;;;;;6.32;4.57;;;;;;;;;;5158940;27;20326;-76
2021/03/09 12:59:40;;;;;;;7.47;4.50;;;;;;;;;;5164520;27;20026;-76
2021/03/09 13:02:06;;;;;;;6.13;4.25;;;;;;;;;;5169318;27;20027;-77
2021/03/09 13:04:32;;;;;;;7.15;5.10;;;;;;;;;;5160614;27;20076;-77
2021/03/09 13:06:58;;;;;;;6.85;5.15;;;;;;;;;;5169764;27;20433;-77
2021/03/09 13:09:24;;;;;;;7.00;5.20;;;;;;;;;;5167260;27;20428;-77
2021/03/09 13:11:50;;;;;;;6.85;5.55;;;;;;;;;;5160451;27;20483;-77
2021/03/09 13:14:16;;;;;;;7.97;5.75;;;;;;;;;;5167787;27;20035;-78
2021/03/09 13:16:42;;;;;;;7.90;5.80;;;;;;;;;;5173372;27;20041;-77
2021/03/09 13:19:08;;;;;;;7.72;5.75;;;;;;;;;;5168031;27;20037;-77
2021/03/09 13:21:34;;;;;;;8.27;5.95;;;;;;;;;;5172854;27;20034;-77
2021/03/09 13:24:01;;;;;;;8.23;5.63;;;;;;;;;;5164463;27;20030;-77
2021/03/09 13:26:26;;;;;;;7.85;6.10;;;;;;;;;;5166130;27;20037;-77
2021/03/09 13:28:53;;;;;;;6.88;5.57;;;;;;;;;;5160053;27;20035;-77
2021/03/09 13:31:19;;;;;;;8.65;5.68;;;;;;;;;;5162953;27;20112;-77
2021/03/09 13:33:45;;;;;;;9.32;6.18;;;;;;;;;;5164368;27;20023;-77
2021/03/09 13:36:11;;;;;;;7.90;6.15;;;;;;;;;;5167593;27;20022;-78
2021/03/09 13:38:39;;;;;;;8.38;5.78;;;;;;;;;;5157373;27;20023;-77
2021/03/09 13:41:05;;;;;;;9.43;5.75;;;;;;;;;;5171109;27;20018;-77
2021/03/09 13:43:32;;;;;;;8.57;6.05;;;;;;;;;;5166862;27;20246;-77
2021/03/09 13:45:58;;;;;;;7.20;5.22;;;;;;;;;;5166030;27;20026;-77
2021/03/09 13:48:24;;;;;;;6.93;5.32;;;;;;;;;;5158021;27;20062;-76
2021/03/09 13:50:50;;;;;;;7.72;5.80;;;;;;;;;;5166611;27;20094;-77
2021/03/09 13:53:16;;;;;;;8.95;5.75;;;;;;;;;;5153760;27;20539;-77
2021/03/09 13:55:42;;;;;;;7.95;5.72;;;;;;;;;;5138069;27;20498;-77
2021/03/09 13:58:08;;;;;;;9.25;6.18;;;;;;;;;;5149066;27;20479;-77
2021/03/09 14:00:35;;;;;;;6.95;5.53;;;;;;;;;;5154116;27;20041;-77
2021/03/09 14:03:01;;;;;;;9.65;5.68;;;;;;;;;;5161678;27;20023;-77
2021/03/09 14:05:27;;;;;;;7.75;5.45;;;;;;;;;;5168855;27;20036;-77
2021/03/09 14:07:53;;;;;;;7.07;5.57;;;;;;;;;;5149447;27;20038;-77
2021/03/09 14:10:19;;;;;;;7.03;5.28;;;17.80;59.80;;;;;;5140046;27;20031;-77
2021/03/09 14:12:45;;;;;;;13.10;6.38;;;17.70;52.90;;;;;;5142726;27;20475;-77
2021/03/09 14:15:13;;;;;;;10.82;6.22;;;16.90;54.50;;;;;;5150560;27;20075;-77
2021/03/09 14:17:39;;;;;;;11.77;6.32;;;16.40;53.40;;;;;;5149399;27;20031;-77
2021/03/09 14:20:07;;;;;;;12.85;6.15;;;15.60;56.30;;;;;;5146261;27;20408;-77
2021/03/09 14:22:33;;;;;;;11.68;6.65;;;14.70;57.50;;;;;;5153668;27;20027;-77
2021/03/09 14:24:58;;;;;;;8.00;6.32;;;14.30;60.30;;;;;;5142904;27;20011;-77
2021/03/09 14:27:24;;;;;;;9.02;6.07;;;13.40;61.70;;;;;;5138116;27;20434;-77
2021/03/09 14:29:51;;;;;;;12.07;6.72;;;13.50;61.60;;;;;;5142110;27;20086;-77
2021/03/09 14:32:17;;;;;;;8.85;6.32;;;13.40;62.60;;;;;;5142559;27;20031;-77
2021/03/09 14:34:43;;;;;;;10.38;6.57;;;13.10;62.10;;;;;;5131066;27;20030;-77
2021/03/09 14:37:08;;;;;;;8.35;6.15;;;13.10;63.50;;;;;;5151797;27;20388;-77
2021/03/09 14:39:34;;;;;;;7.68;5.05;;;13.50;63.10;;;;;;5138408;27;20043;-77
2021/03/09 14:41:59;;;;;;;7.65;5.22;;;13.60;63.20;;;;;;5149602;27;20022;-77
2021/03/09 14:44:26;;;;;;;12.30;7.22;;;13.30;63.10;;;;;;5147945;27;20022;-77
2021/03/09 14:46:52;;;;;;;7.90;5.82;;;13.30;64.10;;;;;;5137451;27;20157;-77
2021/03/09 14:49:18;;;;;;;9.80;5.97;;;13.20;63.70;;;;;;5143534;27;20030;-77
2021/03/09 14:51:47;;;;;;;11.30;6.10;;;12.90;65.30;;;;;;5142311;27;20046;-77
2021/03/09 14:54:14;;;;;;;8.88;5.85;;;12.60;65.20;;;;;;5146794;27;20035;-77
2021/03/09 14:56:40;;;;;;;11.50;6.00;;;12.70;65.90;;;;;;5146004;27;20035;-77
2021/03/09 14:59:05;;;;;;;8.52;6.05;;;13.00;65.40;;;;;;5140414;27;20143;-77
2021/03/09 15:01:31;;;;;;;7.60;5.45;;;13.30;64.20;;;;;;5135868;27;21151;-77
2021/03/09 15:03:58;;;;;;;12.02;6.25;;;14.30;64.10;;;;;;5149787;27;20030;-77
2021/03/09 15:06:24;;;;;;;12.68;6.40;;;13.50;63.70;;;;;;5149843;27;20811;-77
2021/03/09 15:08:49;;;;;;;9.00;5.78;;;14.20;63.70;;;;;;5141032;27;20035;-77
2021/03/09 15:11:15;;;;;;;9.30;5.80;;;14.60;62.20;;;;;;5150064;27;20031;-78
2021/03/09 15:13:40;;;;;;;8.02;5.68;;;15.40;60.00;;;;;;5140134;27;20023;-77
2021/03/09 15:16:06;;;;;;;9.25;6.53;;;15.60;58.90;;;;;;5141764;27;20027;-77
2021/03/09 15:18:32;;;;;;;10.02;6.47;;;14.90;60.70;;;;;;5142761;27;20058;-76
2021/03/09 15:20:57;;;;;;;10.43;6.90;;;14.10;61.50;;;;;;5143799;27;20055;-76
2021/03/09 15:23:23;;;;;;;8.02;5.72;;;13.90;62.60;;;;;;5145837;27;20024;-77
2021/03/09 15:25:49;;;;;;;9.93;6.65;;;14.10;63.00;;;;;;5142422;27;20087;-77
2021/03/09 15:28:14;;;;;;;8.32;6.47;;;14.70;61.50;;;;;;5150090;27;20110;-77
2021/03/09 15:30:40;;;;;;;8.95;5.53;;;14.90;59.30;;;;;;5142106;27;20058;-77
2021/03/09 15:33:06;;;;;;;10.82;5.78;;;14.90;60.30;;;;;;5141863;27;20054;-77
2021/03/09 15:35:33;;;;;;;6.30;4.15;;;13.90;61.90;;;;;;5144744;27;20049;-77
2021/03/09 15:37:58;;;;;;;7.53;5.00;;;12.80;64.20;;;;;;5144399;27;20102;-78
2021/03/09 15:40:25;;;;;;;8.45;5.00;;;12.10;65.60;;;;;;5145952;27;20043;-77
2021/03/09 15:42:51;;;;;;;10.05;4.78;;;;;;;;;;5147273;27;20501;-77
2021/03/09 15:45:18;;;;;;;6.70;4.28;;;;;;;;;;5147344;27;20035;-77
2021/03/09 15:47:44;;;;;;;6.32;3.80;;;;;;;;;;5133244;27;20019;-76
2021/03/09 15:50:11;;;;;;;6.88;3.75;;;;;;;;;;5144190;27;20107;-76
2021/03/09 15:52:38;;;;;;;7.82;4.38;;;;;;;;;;5140799;27;20491;-76
2021/03/09 15:55:06;;;;;;;6.25;3.97;;;;;;;;;;5143771;27;20031;-76
2021/03/09 15:57:32;;;;;;;5.90;3.88;;;;;;;;;;5139918;27;20012;-76
2021/03/09 15:59:58;;;;;;;5.60;3.38;;;;;;;;;;5141962;27;20456;-76
2021/03/09 16:02:24;;;;;;;5.32;2.95;;;;;;;;;;5140820;27;20201;-77
2021/03/09 16:04:50;;;;;;;4.88;3.10;;;;;;;;;;5144709;27;20109;-77
2021/03/09 16:07:16;;;;;;;7.28;3.42;;;;;;;;;;5153197;27;20113;-76
2021/03/09 16:09:43;;;;;;;8.52;4.55;;;;;;;;;;5149578;27;20034;-76
2021/03/09 16:12:09;;;;;;;7.03;3.38;;;;;;;;;;5141712;27;20023;-77
2021/03/09 16:14:36;;;;;;;5.95;3.10;;;;;;;;;;5148089;27;20037;-76
2021/03/09 16:17:02;;;;;;;7.10;3.55;;;;;;;;;;5145719;27;20019;-77
2021/03/09 16:19:28;;;;;;;5.80;3.65;;;;;;;;;;5141179;27;20019;-77
2021/03/09 16:21:54;;;;;;;4.90;3.20;;;;;;;;;;5142578;27;20102;-77
2021/03/09 16:24:20;;;;;;;5.28;3.30;;;;;;;;;;5141259;27;20031;-77
2021/03/09 16:26:46;;;;;;;6.10;4.20;;;;;;;;;;5140576;27;20015;-77
2021/03/09 16:29:12;;;;;;;7.28;4.78;;;;;;;;;;5136229;27;20079;-77
2021/03/09 16:31:38;;;;;;;9.50;5.78;;;;;;;;;;5144091;27;20111;-76
2021/03/09 16:34:04;;;;;;;7.50;5.18;;;;;;;;;;5143143;27;20031;-77
2021/03/09 16:36:30;;;;;;;8.65;5.70;;;;;;;;;;5133483;27;20046;-77
2021/03/09 16:38:56;;;;;;;13.13;5.53;;;;;;;;;;5150012;27;20046;-77
2021/03/09 16:41:22;;;;;;;11.73;6.18;;;;;;;;;;5127155;27;20027;-77
2021/03/09 16:43:48;;;;;;;6.55;4.47;;;;;;;;;;5132310;27;20080;-77
2021/03/09 16:46:14;;;;;;;8.75;5.50;;;;;;;;;;5132570;27;20027;-76
2021/03/09 16:48:41;;;;;;;9.45;5.50;;;;;;;;;;5132584;27;20484;-77
2021/03/09 16:51:07;;;;;;;11.35;5.20;;;;;;;;;;5131138;27;20034;-76
2021/03/09 16:53:33;;;;;;;11.73;5.78;;;;;;;;;;5133139;27;20050;-76
2021/03/09 16:55:59;;;;;;;9.82;5.70;;;;;;;;;;5135885;27;20035;-77
2021/03/09 16:58:25;;;;;;;9.75;5.65;;;;;;;;;;5121418;28;20027;-77
2021/03/09 17:00:52;;;;;;;14.05;6.28;;;;;;;;;;5118188;28;20024;-77
2021/03/09 17:03:18;;;;;;;11.70;5.90;;;;;;;;;;5126598;28;20049;-77
2021/03/09 17:05:44;;;;;;;7.38;5.32;;;;;;;;;;5117070;28;20032;-77
2021/03/09 17:08:10;;;;;;;8.50;5.85;;;;;;;;;;5114170;28;20035;-76
2021/03/09 17:10:36;;;;;;;8.63;5.88;;;;;;;;;;5112325;28;20534;-77
2021/03/09 17:13:03;;;;;;;8.63;5.68;;;;;;;;;;5109999;28;20023;-77
2021/03/09 17:15:29;;;;;;;9.15;5.50;;;;;;;;;;5112617;28;20683;-77
2021/03/09 17:17:55;;;;;;;9.93;6.10;;;;;;;;;;5112600;28;20023;-77
2021/03/09 17:20:21;;;;;;;9.57;5.93;;;;;;;;;;5143859;27;20022;-76
2021/03/09 17:22:47;;;;;;;8.55;5.32;;;;;;;;;;5143932;27;20031;-77
2021/03/09 17:25:13;;;;;;;10.13;5.85;;;;;;;;;;5145381;27;20034;-78
2021/03/09 17:27:40;;;;;;;9.02;5.82;;;;;;;;;;5131094;28;20019;-76
2021/03/09 17:30:06;;;;;;;9.88;5.78;;;;;;;;;;5132134;28;20078;-78
2021/03/09 17:32:32;;;;;;;8.57;5.80;;;;;;;;;;5130950;28;20023;-77
2021/03/09 17:34:58;;;;;;;10.65;5.63;;;;;;;;;;5114113;28;20026;-77
2021/03/09 17:37:25;;;;;;;7.38;4.75;;;;;;;;;;5118778;28;20049;-77
2021/03/09 17:39:51;;;;;;;10.20;5.80;;;;;;;;;;5133415;27;20387;-77
2021/03/09 17:42:17;;;;;;;9.30;5.50;;;;;;;;;;5131909;27;20027;-77
2021/03/09 17:44:49;;;;;;;7.18;4.57;;;;;;;;;;5134208;27;20029;-78
2021/03/09 17:47:15;;;;;;;8.60;4.25;;;;;;;;;;5136345;27;20417;-77
2021/03/09 17:49:42;;;;;;;6.20;4.00;;;;;;;;;;5128830;27;20032;-77
2021/03/09 17:52:09;;;;;;;6.32;3.72;;;;;;;;;;5136568;27;20059;-77
2021/03/09 17:54:35;;;;;;;9.73;4.75;;;;;;;;;;5134083;27;20050;-77
2021/03/09 17:57:01;;;;;;;7.97;4.18;;;;;;;;;;5130437;27;20500;-77
2021/03/09 17:59:27;;;;;;;5.93;3.65;;;;;;;;;;5136846;27;20034;-77
2021/03/09 18:01:53;;;;;;;7.50;5.18;;;;;;;;;;5133121;27;20014;-76
2021/03/09 18:04:19;;;;;;;7.53;4.75;;;;;;;;;;5146174;27;20027;-77
2021/03/09 18:06:45;;;;;;;5.07;3.72;;;;;;;;;;5136256;27;20114;-77
2021/03/09 18:09:11;;;;;;;7.65;5.05;;;;;;;;;;5134195;27;20046;-77
2021/03/09 18:11:37;;;;;;;26.50;15.65;;;;;;;;;;5134765;27;20027;-78
2021/03/09 18:14:03;;;;;;;11.90;5.82;;;;;;;;;;5134060;27;20384;-77
2021/03/09 18:16:29;;;;;;;8.48;4.38;;;;;;;;;;5134371;27;20042;-77
2021/03/09 18:18:59;;;;;;;6.68;4.18;;;;;;;;;;5134615;27;20020;-77
2021/03/09 18:21:25;;;;;;;6.85;4.40;;;;;;;;;;5134751;27;20027;-77
2021/03/09 18:23:51;;;;;;;7.97;4.60;;;;;;;;;;5129762;27;20118;-77
2021/03/09 18:26:17;;;;;;;8.95;4.63;;;;;;;;;;5129211;27;20027;-77
2021/03/09 18:28:43;;;;;;;7.93;4.88;;;;;;;;;;5133604;27;20034;-74
2021/03/09 18:31:09;;;;;;;9.88;5.47;;;;;;;;;;5114269;28;20708;-77
2021/03/09 18:33:35;;;;;;;11.05;4.60;;;;;;;;;;5112356;28;20070;-77
2021/03/09 18:36:01;;;;;;;8.68;4.57;;;;;;;;;;5123646;27;20491;-78
2021/03/09 18:38:27;;;;;;;9.13;5.32;;;;;;;;;;5138735;27;20023;-76
2021/03/09 18:40:53;;;;;;;6.97;4.45;;;;;;;;;;5137796;27;20094;-78
2021/03/09 18:43:19;;;;;;;10.45;4.93;;;;;;;;;;5122492;27;20023;-77
2021/03/09 18:45:45;;;;;;;8.02;4.82;;;;;;;;;;5138037;27;20035;-77
2021/03/09 18:48:11;;;;;;;9.55;5.15;;;;;;;;;;5137987;27;20023;-77
2021/03/09 18:50:37;;;;;;;9.50;5.50;;;;;;;;;;5134884;27;20037;-77
2021/03/09 18:53:03;;;;;;;9.93;5.95;;;;;;;;;;5134996;27;20031;-77
